URKAURKK

Guest
Details From URKA - Vityazevo
To URKK - Pashkovskiy
Flight Number -
Tags Generated
Created
Modified
Stats Distance 77 nm / 142 km
Max Altitude 0 ft / 0 m
Waypoints 2
Social Downloads 0
Likes 0
Share VATSIM

Download

Looking for another format? Having issues loading an existing format? Contact us
Advertisement - Login to hide

Notes

Generated

Route

URKA URKK

ID Type Via Altitude Latitude Longitude Leg Dist Tot Dist Heading (true) Name
O URKA APT - 0 ft / 0 m 44.99374˚ 37.33714˚ - 0 nm - -
O URKK APT - 0 ft / 0 m 45.02906˚ 39.14142˚ 76 nm 76 nm 88° / 89° -

Altitude Profile

Advertisement - Login to hide

URKA

Details ICAO URKA (AAQ)
Name Vityazevo
Region Russia
Timezone Europe/Moscow (UTC+3.0)
Stats Elevation 173 ft / 53 m (AMSL)
Location 45.001895° 37.347609°
Runways 2
Magnetic Variation 7.172° E

METAR

URKA 181300Z 23005MPS 9999 FEW/// BKN021CB 10/09 Q1016 R22/290160 NOSIG RMK QFE757/1009

Decode

TAF

TAF TAF URKA 181051Z 1812/1912 20007G12MPS 3100 -SHRA SCT011 BKN020CB TEMPO 1812/1818 23009G14MPS 2000 TSRA SCT005 BKN020CB BECMG 1818/1820 26007G13MPS TEMPO 1820/1912 31006G11MPS 1000 SHRA BKN003 BKN020CB

Decode

Departure Runways

ID Width Length Bearing (true) Bearing (mag) Surface Threshold Offset Overrun Length
04 138 ft / 42 m 7,961 ft / 2,426 m 43.79° 36.62° Concrete 0 ft / 0 m 157 ft / 48 m
04R 312 ft / 95 m 8,009 ft / 2,441 m 43.78° 36.61° Grass 0 ft / 0 m 0 ft / 0 m
22 138 ft / 42 m 7,961 ft / 2,426 m 223.81° 216.64° Concrete 0 ft / 0 m 164 ft / 50 m
22L 312 ft / 95 m 8,009 ft / 2,441 m 223.80° 216.63° Grass 0 ft / 0 m 0 ft / 0 m

URKK

Details ICAO URKK (KRR)
Name PASHKOVSKIY
Region Russia
Timezone Europe/Moscow (UTC+3.0)
Stats Elevation 118 ft / 36 m (AMSL)
Location 45.034644° 39.170454°
Runways 2
Magnetic Variation 7.356° E

METAR

URKK 181300Z 23002MPS 200V280 9999 SCT063CB 13/10 Q1016 R23L/290060 TEMPO 2000 TSRA BKN007 BKN020CB RMK QFE758

Decode

TAF

TAF URKK 181055Z 1812/1912 22006G14MPS 9999 BKN030CB TEMPO 1812/1815 3100 -SHRA BKN011 BKN020CB PROB40 TEMPO 1812/1815 -TSRA FM181500 34003G08MPS 5000 -SHRA BR BKN011 BKN020CB TEMPO 1815/1909 2000 SHRA SCT005 BKN020CB

Decode

Destination Runways

ID Width Length Bearing (true) Bearing (mag) Surface Threshold Offset Overrun Length
05L 160 ft / 49 m 7,177 ft / 2,187 m 52.37° 45.01° Asphalt 0 ft / 0 m 160 ft / 49 m
05R 145 ft / 44 m 9,822 ft / 2,994 m 52.45° 45.09° Concrete 0 ft / 0 m 160 ft / 49 m
23L 145 ft / 44 m 9,822 ft / 2,994 m 232.47° 225.11° Concrete 0 ft / 0 m 160 ft / 49 m
23R 160 ft / 49 m 7,177 ft / 2,187 m 232.38° 225.02° Asphalt 0 ft / 0 m 160 ft / 49 m

Popular Alternatives